createdAt,value
2023-01-27T00:05:19.065Z,10.75
2023-01-27T00:13:32.198Z,10.23
2023-01-27T00:21:49.916Z,10.95
2023-01-27T00:29:57.904Z,10.15
2023-01-27T00:38:05.648Z,10.38
2023-01-27T00:46:14.024Z,12.02
2023-01-27T00:54:19.590Z,13.27
2023-01-27T01:02:27.778Z,11.50
2023-01-27T01:10:33.541Z,11.05
2023-01-27T01:18:41.920Z,12.43
2023-01-27T01:27:32.432Z,11.55
2023-01-27T01:35:44.974Z,10.00
2023-01-27T01:43:50.788Z,10.18
2023-01-27T01:52:03.264Z,11.18
2023-01-27T02:00:16.180Z,10.35
2023-01-27T02:16:35.649Z,12.25
2023-01-27T02:24:50.652Z,11.25
2023-01-27T02:32:59.089Z,10.35
2023-01-27T02:41:10.325Z,12.40
2023-01-27T02:49:22.007Z,12.38
2023-01-27T02:57:29.993Z,10.63
2023-01-27T03:06:04.365Z,10.18
2023-01-27T03:14:10.913Z,11.00
2023-01-27T03:22:20.423Z,10.85
2023-01-27T03:30:26.190Z,10.65
2023-01-27T03:38:56.089Z,10.82
2023-01-27T03:47:01.751Z,13.43
2023-01-27T03:55:11.643Z,11.50
2023-01-27T04:03:29.654Z,11.32
2023-01-27T04:11:50.161Z,13.80
2023-01-27T04:19:55.772Z,14.27
2023-01-27T04:28:03.992Z,16.50
2023-01-27T04:36:10.091Z,16.40
2023-01-27T04:44:20.462Z,15.98
2023-01-27T04:52:25.859Z,13.38
2023-01-27T05:00:34.166Z,14.60
2023-01-27T05:08:39.700Z,13.85
2023-01-27T05:16:48.400Z,16.52
2023-01-27T05:24:53.823Z,15.00
2023-01-27T05:33:01.959Z,16.27
2023-01-27T05:41:09.099Z,18.05
2023-01-27T05:49:21.012Z,16.17
2023-01-27T05:57:26.805Z,17.08
2023-01-27T06:05:36.216Z,17.20
2023-01-27T06:13:44.224Z,16.63
2023-01-27T06:21:52.371Z,15.93
2023-01-27T06:29:59.586Z,16.35
2023-01-27T06:38:13.004Z,15.10
2023-01-27T06:46:18.744Z,12.70
2023-01-27T06:54:33.725Z,16.10
2023-01-27T07:02:39.418Z,14.70
2023-01-27T07:10:54.753Z,14.40
2023-01-27T07:19:00.334Z,12.75
2023-01-27T07:27:10.696Z,14.95
2023-01-27T07:35:16.405Z,14.80
2023-01-27T07:43:27.855Z,14.95
2023-01-27T07:51:33.476Z,13.95
2023-01-27T07:59:47.677Z,13.98
2023-01-27T08:08:04.063Z,11.80
2023-01-27T08:16:16.597Z,11.65
2023-01-27T08:24:22.207Z,13.30
2023-01-27T08:32:49.464Z,11.65
2023-01-27T08:41:18.139Z,10.60
2023-01-27T08:49:32.281Z,9.38
2023-01-27T08:58:21.678Z,10.65
2023-01-27T09:06:38.779Z,10.35
2023-01-27T09:15:28.590Z,9.35
2023-01-27T09:23:58.105Z,10.02
2023-01-27T09:32:04.169Z,11.00
2023-01-27T09:40:20.287Z,11.10
2023-01-27T09:48:50.867Z,9.32
2023-01-27T09:57:10.880Z,10.18
2023-01-27T10:05:44.779Z,9.45
2023-01-27T10:22:14.623Z,10.60
2023-01-27T10:30:28.768Z,11.68
2023-01-27T10:38:42.113Z,14.35
2023-01-27T10:46:57.798Z,14.10
2023-01-27T10:55:08.510Z,14.57
2023-01-27T11:03:21.790Z,14.18
2023-01-27T11:11:41.112Z,14.95
2023-01-27T11:19:59.722Z,14.73
2023-01-27T11:28:14.136Z,14.45
2023-01-27T11:36:22.149Z,10.65
2023-01-27T11:44:30.622Z,11.48
2023-01-27T11:52:38.556Z,11.40
2023-01-27T12:00:48.250Z,11.65
2023-01-27T12:08:56.231Z,11.15
2023-01-27T12:17:04.955Z,13.63
2023-01-27T12:25:22.650Z,12.05
2023-01-27T12:33:33.114Z,13.13
2023-01-27T12:41:41.554Z,14.30
2023-01-27T12:49:46.878Z,13.93
2023-01-27T12:57:54.962Z,16.17
2023-01-27T13:06:02.912Z,19.80
2023-01-27T13:14:20.367Z,14.30
2023-01-27T13:22:27.779Z,14.82
2023-01-27T13:30:40.577Z,13.40
2023-01-27T13:38:52.555Z,14.30
2023-01-27T13:47:08.845Z,16.08
2023-01-27T13:55:16.357Z,15.98
2023-01-27T14:03:50.408Z,18.02
2023-01-27T14:12:03.499Z,18.85
2023-01-27T14:20:24.884Z,25.93
2023-01-27T14:28:39.323Z,21.10
2023-01-27T14:36:53.764Z,15.30
2023-01-27T14:45:06.508Z,19.27
2023-01-27T14:53:36.993Z,18.63
2023-01-27T15:01:51.907Z,22.80
2023-01-27T15:10:11.655Z,24.77
2023-01-27T15:18:31.371Z,22.35
2023-01-27T15:26:40.744Z,18.58
2023-01-27T15:34:47.086Z,19.83
2023-01-27T15:43:05.559Z,19.20
2023-01-27T15:51:17.287Z,18.25
2023-01-27T15:59:30.594Z,19.27
2023-01-27T16:07:38.651Z,15.25
2023-01-27T16:15:47.147Z,16.23
2023-01-27T16:23:58.170Z,14.25
2023-01-27T16:32:09.534Z,10.90
2023-01-27T16:40:20.118Z,11.57
2023-01-27T16:48:33.534Z,14.15
2023-01-27T16:56:40.841Z,11.65
2023-01-27T17:04:53.345Z,13.07
2023-01-27T17:12:58.627Z,14.23
2023-01-27T17:21:07.401Z,18.45
2023-01-27T17:29:18.076Z,19.58
2023-01-27T17:37:27.335Z,16.80
2023-01-27T17:45:34.847Z,21.55
2023-01-27T17:53:44.782Z,12.38
2023-01-27T18:01:53.103Z,13.27
2023-01-27T18:10:03.537Z,15.07
2023-01-27T18:18:18.267Z,12.15
2023-01-27T18:26:29.867Z,7.15
2023-01-27T18:34:38.079Z,6.32
2023-01-27T18:42:46.005Z,6.00
2023-01-27T18:50:51.592Z,5.60
2023-01-27T18:58:59.563Z,5.88
2023-01-27T19:07:05.288Z,7.10
2023-01-27T19:15:16.202Z,9.38
2023-01-27T19:23:23.530Z,10.18
2023-01-27T19:31:31.571Z,8.20
2023-01-27T19:39:37.431Z,8.70
2023-01-27T19:47:47.248Z,8.25
2023-01-27T19:55:57.461Z,8.75
2023-01-27T20:04:06.386Z,7.78
2023-01-27T20:12:20.380Z,7.43
2023-01-27T20:20:30.218Z,6.68
2023-01-27T20:28:36.362Z,4.97
2023-01-27T20:36:44.486Z,4.72
2023-01-27T20:44:52.044Z,4.75
2023-01-27T20:53:00.597Z,7.72
2023-01-27T21:01:10.594Z,9.45
2023-01-27T21:09:18.573Z,8.68
2023-01-27T21:17:24.090Z,6.03
2023-01-27T21:25:33.552Z,5.60
2023-01-27T21:33:40.704Z,5.25
2023-01-27T21:42:01.312Z,8.32
2023-01-27T21:50:07.439Z,12.32
2023-01-27T21:58:16.104Z,16.70
2023-01-27T22:06:58.557Z,15.50
2023-01-27T22:15:27.195Z,17.90
2023-01-27T22:23:33.026Z,16.92
2023-01-27T22:31:42.142Z,16.75
2023-01-27T22:39:48.716Z,14.63
2023-01-27T22:47:56.645Z,12.27
2023-01-27T22:56:03.263Z,13.02
2023-01-27T23:04:14.685Z,12.45
2023-01-27T23:12:20.464Z,15.82
2023-01-27T23:20:28.507Z,14.80
2023-01-27T23:28:33.973Z,13.27
2023-01-27T23:36:41.963Z,7.18
2023-01-27T23:44:47.541Z,6.13
2023-01-27T23:52:55.786Z,6.28
